sensor_id;sensor_type;location;lat;lon;timestamp;temperature;humidity
26182;DHT22;13927;51.534;11.866;2024-02-26T00:01:59;2.20;99.90
26182;DHT22;13927;51.534;11.866;2024-02-26T00:04:25;2.10;99.90
26182;DHT22;13927;51.534;11.866;2024-02-26T00:06:52;2.00;99.90
26182;DHT22;13927;51.534;11.866;2024-02-26T00:09:19;2.00;99.90
26182;DHT22;13927;51.534;11.866;2024-02-26T00:11:46;1.90;99.90
26182;DHT22;13927;51.534;11.866;2024-02-26T00:14:12;1.90;99.90
26182;DHT22;13927;51.534;11.866;2024-02-26T00:16:40;1.90;99.90
26182;DHT22;13927;51.534;11.866;2024-02-26T00:19:07;1.90;99.90
26182;DHT22;13927;51.534;11.866;2024-02-26T00:21:33;1.90;99.90
26182;DHT22;13927;51.534;11.866;2024-02-26T00:23:59;1.90;99.90
26182;DHT22;13927;51.534;11.866;2024-02-26T00:26:25;1.90;99.90
26182;DHT22;13927;51.534;11.866;2024-02-26T00:28:51;1.80;99.90
26182;DHT22;13927;51.534;11.866;2024-02-26T00:31:18;1.80;99.90
26182;DHT22;13927;51.534;11.866;2024-02-26T00:33:44;1.80;99.90
26182;DHT22;13927;51.534;11.866;2024-02-26T00:36:10;1.80;99.90
26182;DHT22;13927;51.534;11.866;2024-02-26T00:38:36;1.70;99.90
26182;DHT22;13927;51.534;11.866;2024-02-26T00:41:03;1.70;99.90
26182;DHT22;13927;51.534;11.866;2024-02-26T00:43:29;1.70;99.90
26182;DHT22;13927;51.534;11.866;2024-02-26T00:45:55;1.70;99.90
26182;DHT22;13927;51.534;11.866;2024-02-26T00:48:21;1.70;99.90
26182;DHT22;13927;51.534;11.866;2024-02-26T00:50:48;1.70;99.90
26182;DHT22;13927;51.534;11.866;2024-02-26T00:53:14;1.70;99.90
26182;DHT22;13927;51.534;11.866;2024-02-26T00:55:40;1.60;99.90
26182;DHT22;13927;51.534;11.866;2024-02-26T00:58:06;1.60;99.90
26182;DHT22;13927;51.534;11.866;2024-02-26T01:00:33;1.60;99.90
26182;DHT22;13927;51.534;11.866;2024-02-26T01:02:59;1.60;99.90
26182;DHT22;13927;51.534;11.866;2024-02-26T01:05:25;1.60;99.90
26182;DHT22;13927;51.534;11.866;2024-02-26T01:07:51;1.60;99.90
26182;DHT22;13927;51.534;11.866;2024-02-26T01:10:18;1.60;99.90
26182;DHT22;13927;51.534;11.866;2024-02-26T01:12:44;1.50;99.90
26182;DHT22;13927;51.534;11.866;2024-02-26T01:15:10;1.50;99.90
26182;DHT22;13927;51.534;11.866;2024-02-26T01:17:36;1.50;99.90
26182;DHT22;13927;51.534;11.866;2024-02-26T01:20:03;1.50;99.90
26182;DHT22;13927;51.534;11.866;2024-02-26T01:22:30;1.50;99.90
26182;DHT22;13927;51.534;11.866;2024-02-26T01:24:56;1.40;99.90
26182;DHT22;13927;51.534;11.866;2024-02-26T01:27:22;1.40;99.90
26182;DHT22;13927;51.534;11.866;2024-02-26T01:29:52;1.40;99.90
26182;DHT22;13927;51.534;11.866;2024-02-26T01:32:18;1.40;99.90
26182;DHT22;13927;51.534;11.866;2024-02-26T01:34:45;1.40;99.90
26182;DHT22;13927;51.534;11.866;2024-02-26T01:37:11;1.40;99.90
26182;DHT22;13927;51.534;11.866;2024-02-26T01:39:37;1.30;99.90
26182;DHT22;13927;51.534;11.866;2024-02-26T01:42:03;1.30;99.90
26182;DHT22;13927;51.534;11.866;2024-02-26T01:44:29;1.30;99.90
26182;DHT22;13927;51.534;11.866;2024-02-26T01:46:56;1.30;99.90
26182;DHT22;13927;51.534;11.866;2024-02-26T01:49:22;1.30;99.90
26182;DHT22;13927;51.534;11.866;2024-02-26T01:51:48;1.30;99.90
26182;DHT22;13927;51.534;11.866;2024-02-26T01:54:14;1.30;99.90
26182;DHT22;13927;51.534;11.866;2024-02-26T01:56:40;1.30;99.90
26182;DHT22;13927;51.534;11.866;2024-02-26T01:59:08;1.20;99.90
26182;DHT22;13927;51.534;11.866;2024-02-26T02:01:34;1.20;99.90
26182;DHT22;13927;51.534;11.866;2024-02-26T02:04:01;1.20;99.90
26182;DHT22;13927;51.534;11.866;2024-02-26T02:06:27;1.20;99.90
26182;DHT22;13927;51.534;11.866;2024-02-26T02:08:56;1.20;99.90
26182;DHT22;13927;51.534;11.866;2024-02-26T02:11:22;1.20;99.90
26182;DHT22;13927;51.534;11.866;2024-02-26T02:13:48;1.20;99.90
26182;DHT22;13927;51.534;11.866;2024-02-26T02:16:13;1.20;99.90
26182;DHT22;13927;51.534;11.866;2024-02-26T02:18:39;1.20;99.90
26182;DHT22;13927;51.534;11.866;2024-02-26T02:21:05;1.10;99.90
26182;DHT22;13927;51.534;11.866;2024-02-26T02:23:31;1.10;99.90
26182;DHT22;13927;51.534;11.866;2024-02-26T02:25:57;1.10;99.90
26182;DHT22;13927;51.534;11.866;2024-02-26T02:28:27;1.10;99.90
26182;DHT22;13927;51.534;11.866;2024-02-26T02:30:53;1.10;99.90
26182;DHT22;13927;51.534;11.866;2024-02-26T02:33:21;1.10;99.90
26182;DHT22;13927;51.534;11.866;2024-02-26T02:35:48;1.10;99.90
26182;DHT22;13927;51.534;11.866;2024-02-26T02:38:14;1.00;99.90
26182;DHT22;13927;51.534;11.866;2024-02-26T02:40:39;1.00;99.90
26182;DHT22;13927;51.534;11.866;2024-02-26T02:43:05;1.00;99.90
26182;DHT22;13927;51.534;11.866;2024-02-26T02:45:31;0.90;99.90
26182;DHT22;13927;51.534;11.866;2024-02-26T02:47:57;0.90;99.90
26182;DHT22;13927;51.534;11.866;2024-02-26T02:50:22;0.90;99.90
26182;DHT22;13927;51.534;11.866;2024-02-26T02:52:48;0.90;99.90
26182;DHT22;13927;51.534;11.866;2024-02-26T02:55:15;0.90;99.90
26182;DHT22;13927;51.534;11.866;2024-02-26T02:57:41;0.80;99.90
26182;DHT22;13927;51.534;11.866;2024-02-26T03:00:11;0.80;99.90
26182;DHT22;13927;51.534;11.866;2024-02-26T03:02:37;0.80;99.90
26182;DHT22;13927;51.534;11.866;2024-02-26T03:05:06;0.70;99.90
26182;DHT22;13927;51.534;11.866;2024-02-26T03:07:32;0.70;99.90
26182;DHT22;13927;51.534;11.866;2024-02-26T03:09:58;0.70;99.90
26182;DHT22;13927;51.534;11.866;2024-02-26T03:12:23;0.70;99.90
26182;DHT22;13927;51.534;11.866;2024-02-26T03:14:49;0.60;99.90
26182;DHT22;13927;51.534;11.866;2024-02-26T03:17:15;0.60;99.90
26182;DHT22;13927;51.534;11.866;2024-02-26T03:19:40;0.70;99.90
26182;DHT22;13927;51.534;11.866;2024-02-26T03:22:07;0.70;99.90
26182;DHT22;13927;51.534;11.866;2024-02-26T03:24:33;0.70;99.90
26182;DHT22;13927;51.534;11.866;2024-02-26T03:26:58;0.70;99.90
26182;DHT22;13927;51.534;11.866;2024-02-26T03:29:24;0.70;99.90
26182;DHT22;13927;51.534;11.866;2024-02-26T03:31:50;0.70;99.90
26182;DHT22;13927;51.534;11.866;2024-02-26T03:34:15;0.70;99.90
26182;DHT22;13927;51.534;11.866;2024-02-26T03:36:42;0.70;99.90
26182;DHT22;13927;51.534;11.866;2024-02-26T03:39:08;0.80;99.90
26182;DHT22;13927;51.534;11.866;2024-02-26T03:41:34;0.70;99.90
26182;DHT22;13927;51.534;11.866;2024-02-26T03:44:00;0.70;99.90
26182;DHT22;13927;51.534;11.866;2024-02-26T03:46:27;0.70;99.90
26182;DHT22;13927;51.534;11.866;2024-02-26T03:48:52;0.70;99.90
26182;DHT22;13927;51.534;11.866;2024-02-26T03:51:18;0.70;99.90
26182;DHT22;13927;51.534;11.866;2024-02-26T03:53:44;0.70;99.90
26182;DHT22;13927;51.534;11.866;2024-02-26T03:56:11;0.70;99.90
26182;DHT22;13927;51.534;11.866;2024-02-26T03:58:38;0.70;99.90
26182;DHT22;13927;51.534;11.866;2024-02-26T04:01:06;0.70;99.90
26182;DHT22;13927;51.534;11.866;2024-02-26T04:03:32;0.70;99.90
26182;DHT22;13927;51.534;11.866;2024-02-26T04:05:58;0.70;99.90
26182;DHT22;13927;51.534;11.866;2024-02-26T04:08:23;0.60;99.90
26182;DHT22;13927;51.534;11.866;2024-02-26T04:10:49;0.70;99.90
26182;DHT22;13927;51.534;11.866;2024-02-26T04:13:15;0.70;99.90
26182;DHT22;13927;51.534;11.866;2024-02-26T04:15:41;0.70;99.90
26182;DHT22;13927;51.534;11.866;2024-02-26T04:18:06;0.70;99.90
26182;DHT22;13927;51.534;11.866;2024-02-26T04:20:32;0.70;99.90
26182;DHT22;13927;51.534;11.866;2024-02-26T04:22:58;0.70;99.90
26182;DHT22;13927;51.534;11.866;2024-02-26T04:25:23;0.70;99.90
26182;DHT22;13927;51.534;11.866;2024-02-26T04:27:49;0.70;99.90
26182;DHT22;13927;51.534;11.866;2024-02-26T04:30:15;0.70;99.90
26182;DHT22;13927;51.534;11.866;2024-02-26T04:32:42;0.70;99.90
26182;DHT22;13927;51.534;11.866;2024-02-26T04:35:08;0.70;99.90
26182;DHT22;13927;51.534;11.866;2024-02-26T04:37:34;0.80;99.90
26182;DHT22;13927;51.534;11.866;2024-02-26T04:40:00;0.80;99.90
26182;DHT22;13927;51.534;11.866;2024-02-26T04:42:27;0.80;99.90
26182;DHT22;13927;51.534;11.866;2024-02-26T04:44:54;0.80;99.90
26182;DHT22;13927;51.534;11.866;2024-02-26T04:47:20;0.80;99.90
26182;DHT22;13927;51.534;11.866;2024-02-26T04:49:48;0.80;99.90
26182;DHT22;13927;51.534;11.866;2024-02-26T04:52:14;0.80;99.90
26182;DHT22;13927;51.534;11.866;2024-02-26T04:54:40;0.80;99.90
26182;DHT22;13927;51.534;11.866;2024-02-26T04:57:06;0.80;99.90
26182;DHT22;13927;51.534;11.866;2024-02-26T04:59:31;0.80;99.90
26182;DHT22;13927;51.534;11.866;2024-02-26T05:01:57;0.70;99.90
26182;DHT22;13927;51.534;11.866;2024-02-26T05:04:23;0.70;99.90
26182;DHT22;13927;51.534;11.866;2024-02-26T05:06:49;0.70;99.90
26182;DHT22;13927;51.534;11.866;2024-02-26T05:09:14;0.70;99.90
26182;DHT22;13927;51.534;11.866;2024-02-26T05:11:40;0.70;99.90
26182;DHT22;13927;51.534;11.866;2024-02-26T05:14:06;0.70;99.90
26182;DHT22;13927;51.534;11.866;2024-02-26T05:16:33;0.70;99.90
26182;DHT22;13927;51.534;11.866;2024-02-26T05:18:58;0.70;99.90
26182;DHT22;13927;51.534;11.866;2024-02-26T05:21:24;0.70;99.90
26182;DHT22;13927;51.534;11.866;2024-02-26T05:23:50;0.60;99.90
26182;DHT22;13927;51.534;11.866;2024-02-26T05:26:22;0.60;99.90
26182;DHT22;13927;51.534;11.866;2024-02-26T05:28:48;0.70;99.90
26182;DHT22;13927;51.534;11.866;2024-02-26T05:31:15;0.70;99.90
26182;DHT22;13927;51.534;11.866;2024-02-26T05:33:41;0.70;99.90
26182;DHT22;13927;51.534;11.866;2024-02-26T05:36:07;0.70;99.90
26182;DHT22;13927;51.534;11.866;2024-02-26T05:38:33;0.70;99.90
26182;DHT22;13927;51.534;11.866;2024-02-26T05:40:59;0.80;99.90
26182;DHT22;13927;51.534;11.866;2024-02-26T05:43:26;0.80;99.90
26182;DHT22;13927;51.534;11.866;2024-02-26T05:45:52;0.80;99.90
26182;DHT22;13927;51.534;11.866;2024-02-26T05:48:18;0.80;99.90
26182;DHT22;13927;51.534;11.866;2024-02-26T05:50:47;0.80;99.90
26182;DHT22;13927;51.534;11.866;2024-02-26T05:53:13;0.80;99.90
26182;DHT22;13927;51.534;11.866;2024-02-26T05:55:39;0.80;99.90
26182;DHT22;13927;51.534;11.866;2024-02-26T05:58:04;0.90;99.90
26182;DHT22;13927;51.534;11.866;2024-02-26T06:00:31;0.90;99.90
26182;DHT22;13927;51.534;11.866;2024-02-26T06:02:56;0.90;99.90
26182;DHT22;13927;51.534;11.866;2024-02-26T06:05:22;1.00;99.90
26182;DHT22;13927;51.534;11.866;2024-02-26T06:07:48;1.00;99.90
26182;DHT22;13927;51.534;11.866;2024-02-26T06:10:13;1.00;99.90
26182;DHT22;13927;51.534;11.866;2024-02-26T06:12:39;1.00;99.90
26182;DHT22;13927;51.534;11.866;2024-02-26T06:15:06;1.00;99.90
26182;DHT22;13927;51.534;11.866;2024-02-26T06:17:32;1.00;99.90
26182;DHT22;13927;51.534;11.866;2024-02-26T06:19:59;1.00;99.90
26182;DHT22;13927;51.534;11.866;2024-02-26T06:22:25;1.10;99.90
26182;DHT22;13927;51.534;11.866;2024-02-26T06:24:51;1.10;99.90
26182;DHT22;13927;51.534;11.866;2024-02-26T06:27:17;1.10;99.90
26182;DHT22;13927;51.534;11.866;2024-02-26T06:29:43;1.10;99.90
26182;DHT22;13927;51.534;11.866;2024-02-26T06:32:08;1.20;99.90
26182;DHT22;13927;51.534;11.866;2024-02-26T06:34:34;1.20;99.90
26182;DHT22;13927;51.534;11.866;2024-02-26T06:37:00;1.20;99.90
26182;DHT22;13927;51.534;11.866;2024-02-26T06:39:26;1.30;99.90
26182;DHT22;13927;51.534;11.866;2024-02-26T06:41:52;1.40;99.90
26182;DHT22;13927;51.534;11.866;2024-02-26T06:44:25;1.40;99.90
26182;DHT22;13927;51.534;11.866;2024-02-26T06:46:51;1.50;99.90
26182;DHT22;13927;51.534;11.866;2024-02-26T06:49:17;1.60;99.90
26182;DHT22;13927;51.534;11.866;2024-02-26T06:51:42;1.70;99.90
26182;DHT22;13927;51.534;11.866;2024-02-26T06:54:08;1.80;99.90
26182;DHT22;13927;51.534;11.866;2024-02-26T06:56:34;1.90;99.90
26182;DHT22;13927;51.534;11.866;2024-02-26T06:59:00;2.00;99.90
26182;DHT22;13927;51.534;11.866;2024-02-26T07:01:26;2.10;99.90
26182;DHT22;13927;51.534;11.866;2024-02-26T07:03:52;2.20;99.90
26182;DHT22;13927;51.534;11.866;2024-02-26T07:06:18;2.30;99.90
26182;DHT22;13927;51.534;11.866;2024-02-26T07:08:43;2.30;99.90
26182;DHT22;13927;51.534;11.866;2024-02-26T07:11:10;2.40;99.90
26182;DHT22;13927;51.534;11.866;2024-02-26T07:13:36;2.50;99.90
26182;DHT22;13927;51.534;11.866;2024-02-26T07:16:02;2.50;99.90
26182;DHT22;13927;51.534;11.866;2024-02-26T07:18:28;2.50;99.90
26182;DHT22;13927;51.534;11.866;2024-02-26T07:20:54;2.60;99.90
26182;DHT22;13927;51.534;11.866;2024-02-26T07:23:21;2.60;99.90
26182;DHT22;13927;51.534;11.866;2024-02-26T07:25:47;2.70;99.90
26182;DHT22;13927;51.534;11.866;2024-02-26T07:28:14;2.70;99.90
26182;DHT22;13927;51.534;11.866;2024-02-26T07:30:40;2.90;99.90
26182;DHT22;13927;51.534;11.866;2024-02-26T07:33:05;2.90;99.90
26182;DHT22;13927;51.534;11.866;2024-02-26T07:35:32;3.10;99.90
26182;DHT22;13927;51.534;11.866;2024-02-26T07:37:58;3.20;99.90
26182;DHT22;13927;51.534;11.866;2024-02-26T07:40:24;3.30;99.90
26182;DHT22;13927;51.534;11.866;2024-02-26T07:42:50;3.40;99.90
26182;DHT22;13927;51.534;11.866;2024-02-26T07:45:16;3.40;99.90
26182;DHT22;13927;51.534;11.866;2024-02-26T07:47:45;3.60;99.90
26182;DHT22;13927;51.534;11.866;2024-02-26T07:50:12;3.70;99.90
26182;DHT22;13927;51.534;11.866;2024-02-26T07:52:38;3.90;99.90
26182;DHT22;13927;51.534;11.866;2024-02-26T07:55:05;4.00;99.90
26182;DHT22;13927;51.534;11.866;2024-02-26T07:57:32;4.20;99.90
26182;DHT22;13927;51.534;11.866;2024-02-26T08:02:28;4.40;99.90
26182;DHT22;13927;51.534;11.866;2024-02-26T08:04:54;4.50;99.90
26182;DHT22;13927;51.534;11.866;2024-02-26T08:07:20;4.70;99.90
26182;DHT22;13927;51.534;11.866;2024-02-26T08:09:47;4.90;99.90
26182;DHT22;13927;51.534;11.866;2024-02-26T08:12:13;5.10;99.90
26182;DHT22;13927;51.534;11.866;2024-02-26T08:14:40;5.30;99.90
26182;DHT22;13927;51.534;11.866;2024-02-26T08:17:06;5.50;99.90
26182;DHT22;13927;51.534;11.866;2024-02-26T08:19:33;5.60;99.90
26182;DHT22;13927;51.534;11.866;2024-02-26T08:22:02;5.80;99.90
26182;DHT22;13927;51.534;11.866;2024-02-26T08:24:33;5.90;99.90
26182;DHT22;13927;51.534;11.866;2024-02-26T08:27:00;6.10;99.90
26182;DHT22;13927;51.534;11.866;2024-02-26T08:29:30;6.30;99.90
26182;DHT22;13927;51.534;11.866;2024-02-26T08:31:59;6.50;99.90
26182;DHT22;13927;51.534;11.866;2024-02-26T08:34:29;6.80;99.90
26182;DHT22;13927;51.534;11.866;2024-02-26T08:36:57;6.90;99.90
26182;DHT22;13927;51.534;11.866;2024-02-26T08:39:26;7.10;99.90
26182;DHT22;13927;51.534;11.866;2024-02-26T08:41:56;7.30;99.90
26182;DHT22;13927;51.534;11.866;2024-02-26T08:44:27;7.40;99.90
26182;DHT22;13927;51.534;11.866;2024-02-26T08:46:55;7.60;99.90
26182;DHT22;13927;51.534;11.866;2024-02-26T08:49:26;7.70;99.90
26182;DHT22;13927;51.534;11.866;2024-02-26T08:51:56;7.80;99.90
26182;DHT22;13927;51.534;11.866;2024-02-26T08:54:24;7.90;99.90
26182;DHT22;13927;51.534;11.866;2024-02-26T08:56:52;7.90;99.90
26182;DHT22;13927;51.534;11.866;2024-02-26T08:59:21;8.00;99.90
26182;DHT22;13927;51.534;11.866;2024-02-26T09:01:49;8.00;99.90
26182;DHT22;13927;51.534;11.866;2024-02-26T09:04:19;8.00;99.90
26182;DHT22;13927;51.534;11.866;2024-02-26T09:06:48;8.10;99.90
26182;DHT22;13927;51.534;11.866;2024-02-26T09:09:17;8.10;99.90
26182;DHT22;13927;51.534;11.866;2024-02-26T09:11:45;8.10;99.90
26182;DHT22;13927;51.534;11.866;2024-02-26T09:14:15;8.10;99.90
26182;DHT22;13927;51.534;11.866;2024-02-26T09:16:43;8.10;99.90
26182;DHT22;13927;51.534;11.866;2024-02-26T09:19:12;8.00;99.90
26182;DHT22;13927;51.534;11.866;2024-02-26T09:21:47;8.00;99.90
26182;DHT22;13927;51.534;11.866;2024-02-26T09:24:18;8.10;99.90
26182;DHT22;13927;51.534;11.866;2024-02-26T09:26:46;8.20;99.90
26182;DHT22;13927;51.534;11.866;2024-02-26T09:29:15;8.10;99.90
26182;DHT22;13927;51.534;11.866;2024-02-26T09:31:45;8.20;99.90
26182;DHT22;13927;51.534;11.866;2024-02-26T09:34:16;8.30;99.90
26182;DHT22;13927;51.534;11.866;2024-02-26T09:36:44;8.30;99.90
26182;DHT22;13927;51.534;11.866;2024-02-26T09:39:12;8.40;99.90
26182;DHT22;13927;51.534;11.866;2024-02-26T09:41:41;8.50;99.90
26182;DHT22;13927;51.534;11.866;2024-02-26T09:44:09;8.70;99.90
26182;DHT22;13927;51.534;11.866;2024-02-26T09:46:38;8.80;99.90
26182;DHT22;13927;51.534;11.866;2024-02-26T09:49:08;8.90;99.90
26182;DHT22;13927;51.534;11.866;2024-02-26T09:51:39;9.00;99.90
26182;DHT22;13927;51.534;11.866;2024-02-26T09:54:14;9.00;99.90
26182;DHT22;13927;51.534;11.866;2024-02-26T09:56:48;9.10;99.90
26182;DHT22;13927;51.534;11.866;2024-02-26T09:59:19;9.10;99.90
26182;DHT22;13927;51.534;11.866;2024-02-26T10:01:48;9.10;99.90
26182;DHT22;13927;51.534;11.866;2024-02-26T10:04:17;9.00;99.90
26182;DHT22;13927;51.534;11.866;2024-02-26T10:06:48;9.10;99.90
26182;DHT22;13927;51.534;11.866;2024-02-26T10:09:17;9.10;99.90
26182;DHT22;13927;51.534;11.866;2024-02-26T10:11:48;9.10;99.90
26182;DHT22;13927;51.534;11.866;2024-02-26T10:14:18;9.00;99.90
26182;DHT22;13927;51.534;11.866;2024-02-26T10:16:50;9.00;99.90
26182;DHT22;13927;51.534;11.866;2024-02-26T10:19:29;9.00;99.90
26182;DHT22;13927;51.534;11.866;2024-02-26T10:22:00;9.00;99.90
26182;DHT22;13927;51.534;11.866;2024-02-26T10:24:33;9.00;99.90
26182;DHT22;13927;51.534;11.866;2024-02-26T10:27:04;9.10;99.90
26182;DHT22;13927;51.534;11.866;2024-02-26T10:29:34;9.20;99.90
26182;DHT22;13927;51.534;11.866;2024-02-26T10:32:03;9.30;99.90
26182;DHT22;13927;51.534;11.866;2024-02-26T10:34:35;9.20;99.90
26182;DHT22;13927;51.534;11.866;2024-02-26T10:37:10;9.20;99.90
26182;DHT22;13927;51.534;11.866;2024-02-26T10:39:47;9.20;99.90
26182;DHT22;13927;51.534;11.866;2024-02-26T10:42:15;9.20;99.90
26182;DHT22;13927;51.534;11.866;2024-02-26T10:44:47;9.10;99.90
26182;DHT22;13927;51.534;11.866;2024-02-26T10:47:18;9.00;99.90
26182;DHT22;13927;51.534;11.866;2024-02-26T10:49:50;8.90;99.90
26182;DHT22;13927;51.534;11.866;2024-02-26T10:52:20;8.90;99.90
26182;DHT22;13927;51.534;11.866;2024-02-26T10:54:55;8.90;99.90
26182;DHT22;13927;51.534;11.866;2024-02-26T10:57:27;9.00;99.90
26182;DHT22;13927;51.534;11.866;2024-02-26T11:00:01;9.00;99.90
26182;DHT22;13927;51.534;11.866;2024-02-26T11:02:45;8.80;99.90
26182;DHT22;13927;51.534;11.866;2024-02-26T11:05:16;8.80;99.90
26182;DHT22;13927;51.534;11.866;2024-02-26T11:07:45;8.90;99.90
26182;DHT22;13927;51.534;11.866;2024-02-26T11:10:15;9.00;99.90
26182;DHT22;13927;51.534;11.866;2024-02-26T11:12:44;9.10;99.90
26182;DHT22;13927;51.534;11.866;2024-02-26T11:15:14;9.10;99.90
26182;DHT22;13927;51.534;11.866;2024-02-26T11:17:44;9.20;99.90
26182;DHT22;13927;51.534;11.866;2024-02-26T11:20:17;9.30;99.90
26182;DHT22;13927;51.534;11.866;2024-02-26T11:22:48;9.40;99.90
26182;DHT22;13927;51.534;11.866;2024-02-26T11:25:23;9.60;99.90
26182;DHT22;13927;51.534;11.866;2024-02-26T11:27:58;9.70;99.90
26182;DHT22;13927;51.534;11.866;2024-02-26T11:30:32;10.00;99.90
26182;DHT22;13927;51.534;11.866;2024-02-26T11:33:09;10.00;99.90
26182;DHT22;13927;51.534;11.866;2024-02-26T11:35:40;10.00;99.90
26182;DHT22;13927;51.534;11.866;2024-02-26T11:38:21;10.00;99.90
26182;DHT22;13927;51.534;11.866;2024-02-26T11:40:55;10.20;99.90
26182;DHT22;13927;51.534;11.866;2024-02-26T11:43:51;10.10;99.90
26182;DHT22;13927;51.534;11.866;2024-02-26T11:46:41;10.20;99.90
26182;DHT22;13927;51.534;11.866;2024-02-26T11:52:04;10.30;99.90
26182;DHT22;13927;51.534;11.866;2024-02-26T11:57:37;10.40;99.90
26182;DHT22;13927;51.534;11.866;2024-02-26T12:02:46;10.50;99.90
26182;DHT22;13927;51.534;11.866;2024-02-26T12:05:24;10.60;99.90
26182;DHT22;13927;51.534;11.866;2024-02-26T12:08:04;10.80;99.90
26182;DHT22;13927;51.534;11.866;2024-02-26T12:10:41;10.80;99.90
26182;DHT22;13927;51.534;11.866;2024-02-26T12:13:18;10.90;99.90
26182;DHT22;13927;51.534;11.866;2024-02-26T12:15:57;11.00;99.90
26182;DHT22;13927;51.534;11.866;2024-02-26T12:18:27;11.00;99.90
26182;DHT22;13927;51.534;11.866;2024-02-26T12:21:04;11.10;99.90
26182;DHT22;13927;51.534;11.866;2024-02-26T12:23:32;11.10;99.90
26182;DHT22;13927;51.534;11.866;2024-02-26T12:26:03;11.20;99.90
26182;DHT22;13927;51.534;11.866;2024-02-26T12:28:33;11.30;99.90
26182;DHT22;13927;51.534;11.866;2024-02-26T12:31:01;11.40;99.90
26182;DHT22;13927;51.534;11.866;2024-02-26T12:33:30;11.50;99.90
26182;DHT22;13927;51.534;11.866;2024-02-26T12:36:00;11.60;99.90
26182;DHT22;13927;51.534;11.866;2024-02-26T12:38:28;11.70;99.90
26182;DHT22;13927;51.534;11.866;2024-02-26T12:40:56;11.60;99.90
26182;DHT22;13927;51.534;11.866;2024-02-26T12:43:23;11.80;99.90
26182;DHT22;13927;51.534;11.866;2024-02-26T12:45:51;11.90;99.90
26182;DHT22;13927;51.534;11.866;2024-02-26T12:48:20;12.10;99.90
26182;DHT22;13927;51.534;11.866;2024-02-26T12:50:50;12.30;99.90
26182;DHT22;13927;51.534;11.866;2024-02-26T12:55:48;12.80;99.90
26182;DHT22;13927;51.534;11.866;2024-02-26T12:58:17;13.20;99.90
26182;DHT22;13927;51.534;11.866;2024-02-26T13:00:48;13.50;99.90
26182;DHT22;13927;51.534;11.866;2024-02-26T13:03:17;13.70;99.90
26182;DHT22;13927;51.534;11.866;2024-02-26T13:05:48;13.80;99.90
26182;DHT22;13927;51.534;11.866;2024-02-26T13:08:20;14.00;99.90
26182;DHT22;13927;51.534;11.866;2024-02-26T13:10:49;14.00;99.90
26182;DHT22;13927;51.534;11.866;2024-02-26T13:13:23;13.90;99.90
26182;DHT22;13927;51.534;11.866;2024-02-26T13:16:06;14.00;99.90
26182;DHT22;13927;51.534;11.866;2024-02-26T13:18:38;14.10;99.90
26182;DHT22;13927;51.534;11.866;2024-02-26T13:21:16;14.40;99.90
26182;DHT22;13927;51.534;11.866;2024-02-26T13:23:53;14.50;99.90
26182;DHT22;13927;51.534;11.866;2024-02-26T13:26:21;14.80;99.90
26182;DHT22;13927;51.534;11.866;2024-02-26T13:29:03;15.00;99.90
26182;DHT22;13927;51.534;11.866;2024-02-26T13:31:38;14.90;99.90
26182;DHT22;13927;51.534;11.866;2024-02-26T13:34:22;14.70;99.90
26182;DHT22;13927;51.534;11.866;2024-02-26T13:36:55;14.50;99.90
26182;DHT22;13927;51.534;11.866;2024-02-26T13:39:25;14.40;99.90
26182;DHT22;13927;51.534;11.866;2024-02-26T13:41:57;14.20;99.90
26182;DHT22;13927;51.534;11.866;2024-02-26T13:44:27;13.90;99.90
26182;DHT22;13927;51.534;11.866;2024-02-26T13:46:57;13.70;99.90
26182;DHT22;13927;51.534;11.866;2024-02-26T13:49:28;13.60;99.90
26182;DHT22;13927;51.534;11.866;2024-02-26T13:51:56;13.10;99.90
26182;DHT22;13927;51.534;11.866;2024-02-26T13:54:23;12.90;99.90
26182;DHT22;13927;51.534;11.866;2024-02-26T13:56:53;12.80;99.90
26182;DHT22;13927;51.534;11.866;2024-02-26T13:59:22;12.80;99.90
26182;DHT22;13927;51.534;11.866;2024-02-26T14:01:51;12.70;99.90
26182;DHT22;13927;51.534;11.866;2024-02-26T14:04:20;12.60;99.90
26182;DHT22;13927;51.534;11.866;2024-02-26T14:06:50;12.80;99.90
26182;DHT22;13927;51.534;11.866;2024-02-26T14:09:21;12.80;99.90
26182;DHT22;13927;51.534;11.866;2024-02-26T14:11:50;12.90;99.90
26182;DHT22;13927;51.534;11.866;2024-02-26T14:14:20;12.90;99.90
26182;DHT22;13927;51.534;11.866;2024-02-26T14:16:47;12.90;99.90
26182;DHT22;13927;51.534;11.866;2024-02-26T14:19:13;12.80;99.90
26182;DHT22;13927;51.534;11.866;2024-02-26T14:21:40;12.70;99.90
26182;DHT22;13927;51.534;11.866;2024-02-26T14:24:06;12.60;99.90
26182;DHT22;13927;51.534;11.866;2024-02-26T14:26:32;12.50;99.90
26182;DHT22;13927;51.534;11.866;2024-02-26T14:28:59;12.50;99.90
26182;DHT22;13927;51.534;11.866;2024-02-26T14:31:26;12.50;99.90
26182;DHT22;13927;51.534;11.866;2024-02-26T14:33:52;12.40;99.90
26182;DHT22;13927;51.534;11.866;2024-02-26T14:36:20;12.30;99.90
26182;DHT22;13927;51.534;11.866;2024-02-26T14:38:48;12.30;99.90
26182;DHT22;13927;51.534;11.866;2024-02-26T14:41:14;12.20;99.90
26182;DHT22;13927;51.534;11.866;2024-02-26T14:43:41;12.10;99.90
26182;DHT22;13927;51.534;11.866;2024-02-26T14:46:08;12.00;99.90
26182;DHT22;13927;51.534;11.866;2024-02-26T14:48:34;12.00;99.90
26182;DHT22;13927;51.534;11.866;2024-02-26T14:51:01;11.90;99.90
26182;DHT22;13927;51.534;11.866;2024-02-26T14:53:27;11.90;99.90
26182;DHT22;13927;51.534;11.866;2024-02-26T14:55:53;11.90;99.90
26182;DHT22;13927;51.534;11.866;2024-02-26T14:58:18;11.80;99.90
26182;DHT22;13927;51.534;11.866;2024-02-26T15:00:44;11.90;99.90
26182;DHT22;13927;51.534;11.866;2024-02-26T15:03:10;11.80;99.90
26182;DHT22;13927;51.534;11.866;2024-02-26T15:05:36;11.80;99.90
26182;DHT22;13927;51.534;11.866;2024-02-26T15:08:02;11.80;99.90
26182;DHT22;13927;51.534;11.866;2024-02-26T15:10:28;11.80;99.90
26182;DHT22;13927;51.534;11.866;2024-02-26T15:12:54;11.70;99.90
26182;DHT22;13927;51.534;11.866;2024-02-26T15:15:21;11.80;99.90
26182;DHT22;13927;51.534;11.866;2024-02-26T15:17:48;11.80;99.90
26182;DHT22;13927;51.534;11.866;2024-02-26T15:20:17;11.80;99.90
26182;DHT22;13927;51.534;11.866;2024-02-26T15:22:42;11.70;99.90
26182;DHT22;13927;51.534;11.866;2024-02-26T15:25:09;11.60;99.90
26182;DHT22;13927;51.534;11.866;2024-02-26T15:27:35;11.60;99.90
26182;DHT22;13927;51.534;11.866;2024-02-26T15:30:01;11.60;99.90
26182;DHT22;13927;51.534;11.866;2024-02-26T15:32:27;11.70;99.90
26182;DHT22;13927;51.534;11.866;2024-02-26T15:34:54;11.70;99.90
26182;DHT22;13927;51.534;11.866;2024-02-26T15:37:20;11.60;99.90
26182;DHT22;13927;51.534;11.866;2024-02-26T15:39:46;11.60;99.90
26182;DHT22;13927;51.534;11.866;2024-02-26T15:42:12;11.50;99.90
26182;DHT22;13927;51.534;11.866;2024-02-26T15:44:38;11.50;99.90
26182;DHT22;13927;51.534;11.866;2024-02-26T15:47:05;11.50;99.90